الصفحة الرئيسية
METAR-TAF:

METAR-TAF

مطار :

Normanton, أستراليا

دائرة عرض: 17-41-06S, خط طول: 141-04-12E, ارتفاع: 22 متر

مراقبة الطقس الحالي

تاريخ ووقت الإصدار 30 دقيقة قبل الساعة 05:00UTC
ريح 7 عقدة من الجنوب/الجنوب الشرقي
درجة الحرارة 34°درجة مئوية
الرطوبة 39%
ضغط 1009 hPa
الرؤية 10 كم أو أكثر

METAR: YNTN 060500Z AUTO 15007KT 9999 // NCD 34/18 Q1009

زمن: 15:30 (05:30 UTC)


TAF: مفقودة

أرصاد الطقس والتوقعات من أكثر من 4000 مطار (تقارير الطقس للمطار METAR والتنبؤ بالطقس بالمطارTAF).

المحطات المتاحة هي النقط الصفراء والحمراء على الخريطة.

حرك المؤشر فوق النقطة لمعرفة اسم المحطة.

ثم انقر لمعرفة أرصاد وتوقعات الطقس.

لتغيير الخارطة: اضغط على الأزرار الخضراء مع رمز الصليب الأسود للتكبير. على الزر الأخضر مع شرطة للتصغير، أو على الأسهم الخضراء للخرائط المجاورة.


METAR-TAF: